Time,TemperatureF,DewpointF,PressureIn,WindDirection,WindDirectionDegrees,WindSpeedMPH,WindSpeedGustMPH,Humidity,HourlyPrecipIn,Conditions,Clouds,dailyrainin,SoftwareType,DateUTC
2013-05-20 00:11:00,67.6,65.0,30.02,SE,136,0.0,-999.0,91,-99.99,,,0.00,weatherlink.com 1.10,2013-05-20 04:11:00,
2013-05-20 00:26:00,67.4,65.0,30.01,WSW,257,0.0,-999.0,91,-99.99,,,0.00,weatherlink.com 1.10,2013-05-20 04:26:00,
2013-05-20 00:41:00,67.2,65.0,30.01,WSW,257,0.0,-999.0,92,-99.99,,,0.00,weatherlink.com 1.10,2013-05-20 04:41:00,
2013-05-20 00:56:00,66.9,65.0,30.00,WSW,257,0.0,-999.0,92,-99.99,,,0.01,weatherlink.com 1.10,2013-05-20 04:56:00,
2013-05-20 01:11:00,66.7,65.0,30.00,WSW,257,0.0,-999.0,93,-99.99,,,0.01,weatherlink.com 1.10,2013-05-20 05:11:00,
2013-05-20 01:26:00,66.4,64.0,29.99,WSW,257,0.0,-999.0,93,-99.99,,,0.02,weatherlink.com 1.10,2013-05-20 05:26:00,
2013-05-20 01:41:00,66.5,65.0,29.98,SE,131,0.0,-999.0,94,-99.99,,,0.02,weatherlink.com 1.10,2013-05-20 05:41:00,
2013-05-20 01:56:00,66.4,65.0,29.97,SE,126,0.0,-999.0,94,-99.99,,,0.02,weatherlink.com 1.10,2013-05-20 05:56:00,
2013-05-20 02:11:00,66.3,65.0,29.97,ENE,76,0.0,-999.0,94,-99.99,,,0.02,weatherlink.com 1.10,2013-05-20 06:11:00,
2013-05-20 02:26:00,66.1,64.0,29.97,ENE,76,0.0,-999.0,94,-99.99,,,0.02,weatherlink.com 1.10,2013-05-20 06:26:00,
2013-05-20 02:41:00,66.0,64.0,29.97,ENE,71,0.0,-999.0,94,-99.99,,,0.02,weatherlink.com 1.10,2013-05-20 06:41:00,
2013-05-20 02:56:00,65.8,64.0,29.97,ENE,71,0.0,-999.0,94,-99.99,,,0.02,weatherlink.com 1.10,2013-05-20 06:56:00,
2013-05-20 03:11:00,65.6,64.0,29.97,ENE,71,0.0,-999.0,94,-99.99,,,0.02,weatherlink.com 1.10,2013-05-20 07:11:00,
2013-05-20 03:26:00,65.5,64.0,29.97,ENE,71,0.0,-999.0,95,-99.99,,,0.02,weatherlink.com 1.10,2013-05-20 07:26:00,
2013-05-20 03:41:00,65.5,64.0,29.96,ENE,71,0.0,-999.0,95,-99.99,,,0.02,weatherlink.com 1.10,2013-05-20 07:41:00,
2013-05-20 03:57:00,65.6,64.0,29.97,ENE,71,0.0,-999.0,95,-99.99,,,0.02,weatherlink.com 1.10,2013-05-20 07:57:00,
2013-05-20 04:12:00,65.5,64.0,29.97,ENE,71,0.0,-999.0,95,-99.99,,,0.02,weatherlink.com 1.10,2013-05-20 08:12:00,
2013-05-20 04:27:00,65.4,64.0,29.97,ENE,71,0.0,-999.0,95,-99.99,,,0.02,weatherlink.com 1.10,2013-05-20 08:27:00,
2013-05-20 04:42:00,65.4,64.0,29.97,ENE,72,0.0,-999.0,95,-99.99,,,0.02,weatherlink.com 1.10,2013-05-20 08:42:00,
2013-05-20 04:57:00,65.4,64.0,29.97,West,266,0.0,-999.0,95,-99.99,,,0.02,weatherlink.com 1.10,2013-05-20 08:57:00,
2013-05-20 05:12:00,65.4,64.0,29.96,West,265,0.0,-999.0,95,-99.99,,,0.02,weatherlink.com 1.10,2013-05-20 09:12:00,
2013-05-20 05:27:00,65.3,64.0,29.96,East,98,0.0,-999.0,95,-99.99,,,0.02,weatherlink.com 1.10,2013-05-20 09:27:00,
2013-05-20 05:42:00,65.3,64.0,29.97,SE,134,0.0,-999.0,95,-99.99,,,0.02,weatherlink.com 1.10,2013-05-20 09:42:00,
2013-05-20 05:57:00,65.4,64.0,29.97,ESE,117,0.0,-999.0,95,-99.99,,,0.02,weatherlink.com 1.10,2013-05-20 09:57:00,
2013-05-20 06:12:00,65.4,64.0,29.97,WSW,237,0.0,-999.0,94,-99.99,,,0.02,weatherlink.com 1.10,2013-05-20 10:12:00,
2013-05-20 06:27:00,65.3,64.0,29.97,SE,144,0.0,-999.0,94,-99.99,,,0.02,weatherlink.com 1.10,2013-05-20 10:27:00,
2013-05-20 06:42:00,65.3,64.0,29.98,WSW,253,0.0,-999.0,94,-99.99,,,0.02,weatherlink.com 1.10,2013-05-20 10:42:00,
2013-05-20 06:57:00,65.4,64.0,29.98,WSW,253,0.0,-999.0,94,-99.99,,,0.02,weatherlink.com 1.10,2013-05-20 10:57:00,
2013-05-20 07:12:00,65.5,64.0,29.99,SW,218,0.0,-999.0,95,-99.99,,,0.02,weatherlink.com 1.10,2013-05-20 11:12:00,
2013-05-20 07:27:00,65.7,64.0,30.00,SW,214,0.0,-999.0,95,-99.99,,,0.02,weatherlink.com 1.10,2013-05-20 11:27:00,
2013-05-20 07:42:00,65.8,64.0,30.00,SW,214,0.0,-999.0,94,-99.99,,,0.02,weatherlink.com 1.10,2013-05-20 11:42:00,
2013-05-20 07:57:00,66.0,64.0,29.99,East,92,0.0,-999.0,94,-99.99,,,0.02,weatherlink.com 1.10,2013-05-20 11:57:00,
2013-05-20 08:12:00,66.1,64.0,30.00,East,97,0.0,-999.0,94,-99.99,,,0.02,weatherlink.com 1.10,2013-05-20 12:12:00,
2013-05-20 08:27:00,66.3,65.0,30.00,SSE,149,0.0,-999.0,94,-99.99,,,0.02,weatherlink.com 1.10,2013-05-20 12:27:00,
2013-05-20 08:42:00,66.6,65.0,30.00,SSE,149,0.0,-999.0,94,-99.99,,,0.02,weatherlink.com 1.10,2013-05-20 12:42:00,
2013-05-20 08:57:00,67.0,65.0,30.00,SSE,149,0.0,-999.0,94,-99.99,,,0.02,weatherlink.com 1.10,2013-05-20 12:57:00,
2013-05-20 09:12:00,67.3,66.0,30.00,SSE,149,0.0,-999.0,94,-99.99,,,0.02,weatherlink.com 1.10,2013-05-20 13:12:00,
2013-05-20 09:27:00,67.4,65.0,30.00,SE,144,0.0,-999.0,93,-99.99,,,0.02,weatherlink.com 1.10,2013-05-20 13:27:00,
2013-05-20 09:42:00,67.9,66.0,30.00,SE,145,0.0,-999.0,92,-99.99,,,0.02,weatherlink.com 1.10,2013-05-20 13:42:00,
2013-05-20 09:57:00,68.0,66.0,30.00,South,178,0.0,-999.0,92,-99.99,,,0.02,weatherlink.com 1.10,2013-05-20 13:57:00,
2013-05-20 10:12:00,68.2,66.0,30.00,SSE,157,0.0,-999.0,91,-99.99,,,0.02,weatherlink.com 1.10,2013-05-20 14:12:00,
2013-05-20 10:27:00,68.5,66.0,30.01,SE,138,0.0,-999.0,92,-99.99,,,0.02,weatherlink.com 1.10,2013-05-20 14:27:00,
2013-05-20 10:42:00,68.6,66.0,30.00,SW,236,0.0,-999.0,91,-99.99,,,0.02,weatherlink.com 1.10,2013-05-20 14:42:00,
2013-05-20 10:57:00,69.4,67.0,29.99,SW,233,0.0,-999.0,91,-99.99,,,0.02,weatherlink.com 1.10,2013-05-20 14:57:00,
2013-05-20 11:12:00,70.6,67.0,29.99,SSW,205,0.0,-999.0,89,-99.99,,,0.02,weatherlink.com 1.10,2013-05-20 15:12:00,
2013-05-20 11:27:00,71.2,67.0,29.99,SE,145,0.0,-999.0,86,-99.99,,,0.02,weatherlink.com 1.10,2013-05-20 15:27:00,
2013-05-20 11:42:00,71.5,67.0,29.98,East,95,0.0,-999.0,85,-99.99,,,0.02,weatherlink.com 1.10,2013-05-20 15:42:00,
2013-05-20 11:57:00,72.5,68.0,29.98,ESE,113,0.0,-999.0,85,-99.99,,,0.02,weatherlink.com 1.10,2013-05-20 15:57:00,
2013-05-20 12:12:00,72.7,68.0,29.97,ESE,115,0.0,-999.0,85,-99.99,,,0.02,weatherlink.com 1.10,2013-05-20 16:12:00,
2013-05-20 12:27:00,73.1,68.0,29.97,SE,143,0.0,-999.0,85,-99.99,,,0.02,weatherlink.com 1.10,2013-05-20 16:27:00,
2013-05-20 12:42:00,73.5,68.0,29.97,SE,143,0.0,-999.0,83,-99.99,,,0.02,weatherlink.com 1.10,2013-05-20 16:42:00,
2013-05-20 12:57:00,73.9,69.0,29.97,SE,142,0.0,-999.0,84,-99.99,,,0.03,weatherlink.com 1.10,2013-05-20 16:57:00,
2013-05-20 13:12:00,74.3,69.0,29.96,SE,136,0.0,-999.0,83,-99.99,,,0.03,weatherlink.com 1.10,2013-05-20 17:12:00,
2013-05-20 13:27:00,74.7,69.0,29.95,SE,136,0.0,-999.0,83,-99.99,,,0.03,weatherlink.com 1.10,2013-05-20 17:27:00,
2013-05-20 13:42:00,76.7,70.0,29.95,SE,136,0.0,-999.0,79,-99.99,,,0.03,weatherlink.com 1.10,2013-05-20 17:42:00,
2013-05-20 13:57:00,79.2,71.0,29.95,SE,145,0.0,-999.0,77,-99.99,,,0.03,weatherlink.com 1.10,2013-05-20 17:57:00,
2013-05-20 14:12:00,80.5,72.0,29.94,SW,236,0.0,-999.0,75,-99.99,,,0.03,weatherlink.com 1.10,2013-05-20 18:12:00,
2013-05-20 14:28:00,80.2,72.0,29.93,South,177,0.0,-999.0,76,-99.99,,,0.03,weatherlink.com 1.10,2013-05-20 18:28:00,
2013-05-20 14:43:00,79.7,71.0,29.92,SW,231,0.0,-999.0,75,-99.99,,,0.03,weatherlink.com 1.10,2013-05-20 18:43:00,
2013-05-20 14:58:00,81.1,71.0,29.92,SW,236,0.0,-999.0,72,-99.99,,,0.03,weatherlink.com 1.10,2013-05-20 18:58:00,
2013-05-20 15:13:00,81.5,71.0,29.92,SSE,151,0.0,-999.0,70,-99.99,,,0.03,weatherlink.com 1.10,2013-05-20 19:13:00,
2013-05-20 15:28:00,79.6,70.0,29.91,East,94,0.0,-999.0,73,-99.99,,,0.03,weatherlink.com 1.10,2013-05-20 19:28:00,
2013-05-20 15:43:00,80.9,70.0,29.91,SSE,153,0.0,-999.0,70,-99.99,,,0.03,weatherlink.com 1.10,2013-05-20 19:43:00,
2013-05-20 15:58:00,82.4,71.0,29.90,ENE,71,0.0,-999.0,69,-99.99,,,0.03,weatherlink.com 1.10,2013-05-20 19:58:00,
2013-05-20 16:13:00,82.2,71.0,29.90,ENE,75,0.0,-999.0,69,-99.99,,,0.03,weatherlink.com 1.10,2013-05-20 20:13:00,
2013-05-20 16:28:00,82.3,70.0,29.90,South,184,0.0,-999.0,66,-99.99,,,0.03,weatherlink.com 1.10,2013-05-20 20:28:00,
2013-05-20 16:43:00,81.1,69.0,29.89,ENE,75,0.0,-999.0,67,-99.99,,,0.03,weatherlink.com 1.10,2013-05-20 20:43:00,
2013-05-20 16:58:00,80.9,69.0,29.89,ENE,60,0.0,-999.0,68,-99.99,,,0.03,weatherlink.com 1.10,2013-05-20 20:58:00,
2013-05-20 17:13:00,81.2,68.0,29.89,ENE,77,0.0,-999.0,65,-99.99,,,0.03,weatherlink.com 1.10,2013-05-20 21:13:00,
2013-05-20 17:28:00,80.7,69.0,29.89,ESE,123,0.0,-999.0,68,-99.99,,,0.03,weatherlink.com 1.10,2013-05-20 21:28:00,
2013-05-20 17:43:00,80.0,69.0,29.89,SE,140,0.0,-999.0,69,-99.99,,,0.03,weatherlink.com 1.10,2013-05-20 21:43:00,
2013-05-20 17:58:00,79.7,69.0,29.89,SE,140,0.0,-999.0,69,-99.99,,,0.03,weatherlink.com 1.10,2013-05-20 21:58:00,
2013-05-20 18:13:00,79.6,68.0,29.89,SW,219,0.0,-999.0,68,-99.99,,,0.03,weatherlink.com 1.10,2013-05-20 22:13:00,
2013-05-20 18:28:00,79.4,68.0,29.88,South,169,0.0,-999.0,69,-99.99,,,0.03,weatherlink.com 1.10,2013-05-20 22:28:00,
2013-05-20 18:43:00,79.4,69.0,29.89,WSW,242,0.0,-999.0,70,-99.99,,,0.03,weatherlink.com 1.10,2013-05-20 22:43:00,
2013-05-20 18:58:00,79.1,69.0,29.89,ESE,105,0.0,-999.0,72,-99.99,,,0.03,weatherlink.com 1.10,2013-05-20 22:58:00,
2013-05-20 19:13:00,78.7,69.0,29.89,WSW,244,0.0,-999.0,73,-99.99,,,0.03,weatherlink.com 1.10,2013-05-20 23:13:00,
2013-05-20 19:28:00,78.4,70.0,29.89,SE,128,0.0,-999.0,74,-99.99,,,0.03,weatherlink.com 1.10,2013-05-20 23:28:00,
2013-05-20 19:43:00,77.9,69.0,29.88,West,280,0.0,-999.0,74,-99.99,,,0.03,weatherlink.com 1.10,2013-05-20 23:43:00,
2013-05-20 19:58:00,77.1,69.0,29.88,West,275,0.0,-999.0,76,-99.99,,,0.03,weatherlink.com 1.10,2013-05-20 23:58:00,
2013-05-20 20:13:00,76.4,69.0,29.88,West,276,0.0,-999.0,78,-99.99,,,0.03,weatherlink.com 1.10,2013-05-21 00:13:00,
2013-05-20 20:28:00,75.8,69.0,29.89,SW,226,0.0,-999.0,79,-99.99,,,0.03,weatherlink.com 1.10,2013-05-21 00:28:00,
2013-05-20 20:43:00,75.3,69.0,29.89,ESE,111,0.0,-999.0,81,-99.99,,,0.03,weatherlink.com 1.10,2013-05-21 00:43:00,
2013-05-20 20:58:00,74.8,69.0,29.89,ESE,111,0.0,-999.0,82,-99.99,,,0.03,weatherlink.com 1.10,2013-05-21 00:58:00,
2013-05-20 21:13:00,74.4,69.0,29.89,ESE,111,0.0,-999.0,83,-99.99,,,0.03,weatherlink.com 1.10,2013-05-21 01:13:00,
2013-05-20 21:28:00,74.0,69.0,29.90,ESE,111,0.0,-999.0,84,-99.99,,,0.03,weatherlink.com 1.10,2013-05-21 01:28:00,
2013-05-20 21:43:00,73.6,69.0,29.90,ESE,111,0.0,-999.0,84,-99.99,,,0.03,weatherlink.com 1.10,2013-05-21 01:43:00,
2013-05-20 21:58:00,73.1,68.0,29.90,ENE,74,0.0,-999.0,85,-99.99,,,0.03,weatherlink.com 1.10,2013-05-21 01:58:00,
2013-05-20 22:13:00,72.6,68.0,29.90,ENE,74,0.0,-999.0,86,-99.99,,,0.03,weatherlink.com 1.10,2013-05-21 02:13:00,
2013-05-20 22:28:00,72.1,68.0,29.89,ENE,74,0.0,-999.0,87,-99.99,,,0.03,weatherlink.com 1.10,2013-05-21 02:28:00,
2013-05-20 22:43:00,71.5,68.0,29.89,SW,223,0.0,-999.0,88,-99.99,,,0.03,weatherlink.com 1.10,2013-05-21 02:43:00,
2013-05-20 22:58:00,71.5,68.0,29.89,SW,223,0.0,-999.0,88,-99.99,,,0.03,weatherlink.com 1.10,2013-05-21 02:58:00,
2013-05-20 23:13:00,71.1,67.0,29.88,SW,223,0.0,-999.0,88,-99.99,,,0.03,weatherlink.com 1.10,2013-05-21 03:13:00,
2013-05-20 23:28:00,70.5,67.0,29.88,SW,223,0.0,-999.0,89,-99.99,,,0.03,weatherlink.com 1.10,2013-05-21 03:28:00,
2013-05-20 23:43:00,70.3,67.0,29.89,SE,125,0.0,-999.0,89,-99.99,,,0.03,weatherlink.com 1.10,2013-05-21 03:43:00,
2013-05-20 23:58:00,70.3,67.0,29.89,SE,131,0.0,-999.0,89,-99.99,,,0.03,weatherlink.com 1.10,2013-05-21 03:58:00,